Kezdőlap
METAR-TAF:

METAR-TAF

Repülőterek :

Harrisburg, Pennsylvania, Amerikai Egyesült Államok

földrajzi szélesség: 40-13-02N, földrajzi hosszúság: 076-51-05W, magasság: 106 m

Jelenlegi meteorológiai megfigyelések

A jelentés 1 órával és 4 perccel ezelõtt készült, 05:56 UTC
Dél-délkeleti szél 4 kt
Hőmérséklet 19°C
Páratartalom 78%
Légköri nyomás 1022 hPa
Látótávolság: 16.1 km
Derült ég

METAR: KCXY 260556Z AUTO 15004KT 10SM CLR 19/15 A3017 RMK AO2 SLP217 T01890150 10239 20189 50002

Idő: 03:00 (07:00 UTC)


TAF: hiányzik

Meteorológiai megfigyelések és előrejelzések több, mint 4000 repülőtéren (METAR és TAF jelentéseket).

A térképen piros és sárga pontok jelzik az elérhető meteorológiai állomásokat.

Mozgassa az egeret a pont fölött, hogy megjelenjen az állomás neve.

Azután kattintson az időjárási megfigyelések és előrejelzések megtekintéséhez.

A térkép megváltoztatása: kattintson a fekete keresztel jelölt zöld gombra ráközelítéshez, a vonallal jelölt zöld gombra távolításhoz, vagy a zöld nyilakra a szomszédos térképek eléréséhez.


METAR-TAF: